Latest Weather Observations for Rutherglen RS

IDV60801

Issued at 6:05 pm EST Wednesday 23 April 2014 (issued every 30 minutes, with the page automatically refreshed every 10 minutes)

About weather observations | Map of weather stations | Latest weather observations for VIC | Other Formats
Station Details ID: 082039 Name: RUTHERGLEN RESEARCH Lat: -36.10 Lon: 146.51 Height: 175.0 m
Data from the previous 72 hours. | See also: Recent months at Rutherglen RS
Date/Time
EST
Temp
°C
App
Temp
°C
Dew
Point
Rel
Hum
%
Delta-T
°C
Wind Press
QNH
hPa
Press
MSL
hPa
Rain
since 9 am
mm
Dir
 
Spd
km/h
Gust
km/h
Spd
kts
Gust
kts
23/06:00pm 15.2 15.0 12.9 86 1.3 WSW 6 7 3 4 - - 0.0
23/05:30pm 15.8 15.6 12.9 83 1.6 W 6 7 3 4 - - 0.0
23/05:00pm 17.5 17.0 12.6 73 2.7 W 7 9 4 5 - - 0.0
23/04:30pm 19.5 18.6 13.7 69 3.3 W 11 17 6 9 - - 0.0
23/04:00pm 20.6 19.0 13.8 65 4.0 W 15 22 8 12 - - 0.0
23/03:30pm 20.9 19.7 14.1 65 4.0 W 13 20 7 11 - - 0.0
23/03:00pm 20.9 20.9 13.6 63 4.2 WNW 6 9 3 5 - - 0.0
23/02:30pm 20.2 19.3 13.6 66 3.8 NW 11 17 6 9 - - 0.0
23/02:00pm 21.8 21.6 13.7 60 4.7 NNW 7 9 4 5 - - 0.0
23/01:30pm 21.4 21.1 12.8 58 4.9 NNW 6 9 3 5 - - 0.0
23/01:00pm 20.0 19.1 12.7 63 4.1 NW 9 17 5 9 - - 0.0
23/12:30pm 20.8 20.0 13.0 61 4.5 N 9 19 5 10 - - 0.0
23/12:00pm 20.6 19.6 12.3 59 4.7 N 9 15 5 8 - - 0.0
23/11:30am 20.1 18.6 13.1 64 4.0 N 13 20 7 11 - - 0.0
23/11:00am 19.6 18.5 13.1 66 3.7 NNW 11 17 6 9 - - 0.0
23/10:30am 18.8 17.7 11.9 64 3.8 N 9 17 5 9 - - 0.0
23/10:00am 18.4 16.9 11.9 66 3.6 NNE 11 19 6 10 - - 0.0
23/09:30am 17.4 16.0 12.3 72 2.8 NE 11 19 6 10 - - 0.0
23/09:00am 16.5 15.0 11.9 74 2.5 ENE 11 17 6 9 - - 4.6
23/08:30am 14.2 12.9 12.4 89 1.0 ENE 11 15 6 8 - - 4.6
23/08:00am 12.5 11.2 12.5 100 0.0 ENE 11 13 6 7 - - 4.6
23/07:30am 11.7 12.2 11.7 100 0.0 CALM 0 0 0 0 - - 4.4
23/07:00am 9.7 8.0 9.7 100 0.0 ENE 9 13 5 7 - - 4.4
23/06:30am 10.9 9.9 10.9 100 0.0 NE 7 11 4 6 - - 4.4
23/06:00am 10.8 9.3 10.6 99 0.1 SE 9 11 5 6 - - 4.4
23/05:30am 12.4 11.1 11.3 93 0.6 ENE 9 13 5 7 - - 4.4
23/05:00am 13.5 10.8 11.7 89 1.0 NE 17 26 9 14 - - 4.4
23/04:30am 13.7 12.5 11.6 87 1.1 N 9 15 5 8 - - 1.4
23/04:00am 14.4 12.6 10.8 79 1.9 NE 11 17 6 9 - - 1.4
23/03:30am 13.8 11.9 11.7 87 1.1 NE 13 22 7 12 - - 1.4
23/03:00am 15.0 13.5 10.6 75 2.3 ENE 9 13 5 7 - - 0.4
23/02:30am 15.2 13.6 10.2 72 2.6 ENE 9 15 5 8 - - 0.4
23/02:00am 14.7 13.2 10.5 76 2.2 ENE 9 15 5 8 - - 0.4
23/01:30am 14.8 12.9 10.4 75 2.3 NE 11 17 6 9 - - 0.4
23/01:00am 14.5 13.5 11.1 80 1.8 ENE 7 9 4 5 - - 0.2
23/12:30am 15.8 14.9 10.6 71 2.8 S 6 9 3 5 - - 0.2
23/12:00am 15.8 13.8 10.1 69 3.0 ENE 11 17 6 9 - - 0.2
 
Date/Time
EST
Temp
°C
App
Temp
°C
Dew
Point
Rel
Hum
%
Delta-T
°C
Wind Press
QNH
hPa
Press
MSL
hPa
Rain
since 9 am
mm
Dir
 
Spd
km/h
Gust
km/h
Spd
kts
Gust
kts
22/11:30pm 16.0 14.0 10.1 68 3.1 ENE 11 19 6 10 - - 0.2
22/11:00pm 16.2 14.0 10.7 70 3.0 ENE 13 19 7 10 - - 0.2
22/10:30pm 16.5 14.4 11.0 70 3.0 ENE 13 19 7 10 - - 0.2
22/10:00pm 17.1 15.4 11.2 68 3.2 NE 11 22 6 12 - - 0.2
22/09:30pm 17.0 15.0 11.5 70 3.0 ENE 13 19 7 10 - - 0.2
22/09:00pm 17.2 14.7 11.2 68 3.3 ENE 15 20 8 11 - - 0.2
22/08:30pm 16.6 14.7 11.9 74 2.6 E 13 15 7 8 - - 0.2
22/08:00pm 16.7 15.0 12.3 75 2.4 E 13 17 7 9 - - 0.2
22/07:30pm 16.4 14.7 12.4 77 2.2 E 13 17 7 9 - - 0.0
22/07:00pm 16.9 15.6 12.4 75 2.5 E 11 15 6 8 - - 0.0
22/06:30pm 17.7 16.2 11.9 69 3.2 ENE 11 17 6 9 - - 0.0
22/06:00pm 17.8 16.7 11.8 68 3.3 ENE 9 13 5 7 - - 0.0
22/05:30pm 17.9 16.4 11.9 68 3.3 E 11 15 6 8 - - 0.0
22/05:00pm 18.9 17.4 11.9 64 3.9 ENE 11 15 6 8 - - 0.0
22/04:30pm 19.7 18.9 12.9 65 3.9 ENE 9 13 5 7 - - 0.0
22/04:00pm 20.4 19.6 11.6 57 4.9 NE 7 11 4 6 - - 0.0
22/03:30pm 20.3 19.2 11.8 58 4.8 NE 9 17 5 9 - - 0.0
22/03:00pm 20.0 17.7 13.0 64 4.0 ENE 17 33 9 18 - - 0.0
22/02:30pm 20.3 17.7 13.3 64 4.0 ENE 19 26 10 14 - - 0.0
22/02:00pm 20.5 18.4 12.5 60 4.5 ENE 15 22 8 12 - - 0.0
22/01:30pm 20.5 19.3 12.7 61 4.4 NE 11 17 6 9 - - 0.0
22/01:00pm 20.5 19.2 13.7 65 3.9 ENE 13 19 7 10 - - 0.0
22/12:30pm 19.7 18.5 12.9 65 3.9 NE 11 15 6 8 - - 0.0
22/12:00pm 19.3 18.1 14.1 72 3.0 ENE 13 17 7 9 - - 0.0
22/11:30am 17.5 15.3 10.9 65 3.6 ENE 13 17 7 9 - - 0.0
22/11:00am 17.5 15.7 10.9 65 3.6 NE 11 17 6 9 - - 0.0
22/10:30am 17.1 14.3 10.0 63 3.8 NE 15 22 8 12 - - 0.0
22/10:00am 17.5 15.0 10.9 65 3.6 ENE 15 22 8 12 - - 0.0
22/09:30am 17.1 15.1 11.4 69 3.1 E 13 22 7 12 - - 0.0
22/09:00am 15.4 12.1 10.8 74 2.5 ENE 19 28 10 15 - - 0.0
22/08:30am 14.4 11.7 10.2 76 2.2 ENE 15 24 8 13 - - 0.0
22/08:00am 13.2 9.9 9.6 79 1.9 ENE 17 22 9 12 - - 0.0
22/07:30am 12.7 9.8 9.5 81 1.6 ENE 15 22 8 12 - - 0.0
22/07:00am 12.6 10.0 9.4 81 1.6 ENE 13 20 7 11 - - 0.0
22/06:30am 12.2 9.6 9.4 83 1.4 ENE 13 19 7 10 - - 0.0
22/06:00am 12.4 9.4 9.4 82 1.5 ENE 15 22 8 12 - - 0.0
22/05:30am 12.7 10.2 9.7 82 1.5 ENE 13 20 7 11 - - 0.0
22/05:00am 12.5 9.6 9.5 82 1.5 ENE 15 20 8 11 - - 0.0
22/04:30am 12.4 9.5 9.6 83 1.4 ENE 15 20 8 11 - - 0.0
22/04:00am 12.2 9.2 9.4 83 1.4 ENE 15 20 8 11 - - 0.0
22/03:00am 11.3 9.1 9.4 88 1.0 ENE 11 17 6 9 - - 0.0
22/02:30am 10.8 8.2 9.4 91 0.7 E 13 17 7 9 - - 0.0
22/02:00am 9.7 7.7 8.6 93 0.5 ENE 9 13 5 7 - - 0.0
22/01:30am 9.9 7.9 8.7 92 0.6 ENE 9 13 5 7 - - 0.0
22/01:00am 10.2 7.8 8.8 91 0.7 E 11 13 6 7 - - 0.0
22/12:30am 9.7 7.2 8.3 91 0.7 E 11 13 6 7 - - 0.0
22/12:00am 10.2 8.3 9.0 92 0.6 E 9 13 5 7 - - 0.0
 
Date/Time
EST
Temp
°C
App
Temp
°C
Dew
Point
Rel
Hum
%
Delta-T
°C
Wind Press
QNH
hPa
Press
MSL
hPa
Rain
since 9 am
mm
Dir
 
Spd
km/h
Gust
km/h
Spd
kts
Gust
kts
21/11:30pm 10.4 8.2 9.3 93 0.6 ENE 11 13 6 7 - - 0.0
21/11:00pm 9.0 6.7 8.9 99 0.0 E 11 15 6 8 - - 0.0
21/10:30pm 7.7 5.4 7.6 99 0.0 E 9 11 5 6 - - 0.0
21/10:00pm 7.0 5.0 6.9 99 0.0 E 7 9 4 5 - - 0.0
21/09:30pm 7.6 5.6 7.3 98 0.1 ESE 7 9 4 5 - - 0.0
21/09:00pm 9.4 7.6 7.8 90 0.8 ENE 7 11 4 6 - - 0.0
21/08:30pm 7.7 5.4 7.3 97 0.2 E 9 13 5 7 - - 0.0
21/08:00pm 8.6 7.1 8.3 98 0.1 E 6 7 3 4 - - 0.0
21/07:30pm 7.9 5.7 7.9 100 0.0 E 9 11 5 6 - - 0.0
21/07:00pm 8.1 6.3 8.0 99 0.0 ENE 7 9 4 5 - - 0.0
21/06:30pm 9.2 7.6 8.7 97 0.2 E 7 9 4 5 - - 0.0
21/06:00pm 11.3 9.9 9.0 86 1.2 ESE 6 7 3 4 - - 0.0
21/05:30pm 14.1 12.8 9.9 76 2.2 E 7 7 4 4 - - 0.0
21/05:00pm 15.3 14.2 10.1 71 2.7 E 6 7 3 4 - - 0.0
21/04:30pm 16.3 15.2 9.9 66 3.4 ENE 6 7 3 4 - - 0.0
21/04:00pm 16.2 14.4 9.4 64 3.6 ENE 9 11 5 6 - - 0.0
21/03:30pm 16.7 15.2 9.1 61 4.0 NNE 7 11 4 6 - - 0.0
21/03:00pm 17.2 15.7 9.1 59 4.2 NNE 7 11 4 6 - - 0.0
21/02:30pm 16.7 14.9 10.8 68 3.2 ENE 11 15 6 8 - - 0.0
21/02:00pm 16.3 14.5 9.5 64 3.6 E 9 15 5 8 - - 0.0
21/01:30pm 16.0 14.5 9.0 63 3.6 E 7 11 4 6 - - 0.0
21/01:00pm 15.9 15.5 8.4 61 3.8 CALM 0 7 0 4 - - 0.0
21/12:30pm 15.2 13.5 7.7 61 3.8 NNW 6 9 3 5 - - 0.0
21/12:00pm 15.0 13.3 8.3 64 3.4 N 7 13 4 7 - - 0.0
21/11:30am 15.2 13.8 8.9 66 3.2 E 6 9 3 5 - - 0.0
21/11:00am 14.5 12.5 8.7 68 3.0 NE 9 17 5 9 - - 0.0
21/10:30am 14.3 11.9 8.5 68 2.9 NE 11 17 6 9 - - 0.0
21/10:00am 12.8 10.9 8.9 77 2.0 ENE 9 13 5 7 - - 0.0
21/09:30am 11.3 8.9 8.5 83 1.4 ENE 11 13 6 7 - - 0.0
21/09:00am 11.1 9.3 9.4 89 0.9 NE 9 13 5 7 - - 0.0
21/08:30am 8.9 8.3 8.9 100 0.0 E 2 7 1 4 - - 0.0
21/08:00am 6.2 5.3 6.2 100 0.0 CALM 0 0 0 0 - - 0.0
21/07:30am 2.9 1.4 2.9 100 0.0 CALM 0 0 0 0 - - 0.0
21/07:00am 1.5 -0.3 1.5 100 0.0 CALM 0 0 0 0 - - 0.0
21/06:30am 0.9 -0.9 0.9 100 0.0 CALM 0 0 0 0 - - 0.0
21/06:00am 1.7 0.0 1.7 100 0.0 CALM 0 0 0 0 - - 0.0
21/05:30am 1.8 0.1 1.8 100 0.0 CALM 0 0 0 0 - - 0.0
21/05:00am 1.7 0.0 1.7 100 0.0 CALM 0 0 0 0 - - 0.0
21/04:30am 2.7 1.1 2.7 100 0.0 CALM 0 0 0 0 - - 0.0
21/04:00am 2.7 1.1 2.7 100 0.0 CALM 0 0 0 0 - - 0.0
21/03:30am 2.6 0.3 2.6 100 0.0 SSW 4 7 2 4 - - 0.0
21/03:00am 1.7 -1.2 1.7 100 0.0 SSE 6 7 3 4 - - 0.0
21/02:30am 1.9 -1.1 1.9 100 0.0 ENE 7 7 4 4 - - 0.0
21/02:00am 3.0 1.5 3.0 100 0.0 CALM 0 0 0 0 - - 0.0
21/01:30am 3.5 2.1 3.5 100 0.0 CALM 0 0 0 0 - - 0.0
21/01:00am 3.4 2.0 3.4 100 0.0 CALM 0 0 0 0 - - 0.0
21/12:30am 4.0 2.7 4.0 100 0.0 CALM 0 0 0 0 - - 0.0
21/12:00am 3.8 2.4 3.8 100 0.0 CALM 0 0 0 0 - - 0.0
 
Date/Time
EST
Temp
°C
App
Temp
°C
Dew
Point
Rel
Hum
%
Delta-T
°C
Wind Press
QNH
hPa
Press
MSL
hPa
Rain
since 9 am
mm
Dir
 
Spd
km/h
Gust
km/h
Spd
kts
Gust
kts
20/11:30pm 4.0 2.7 4.0 100 0.0 CALM 0 0 0 0 - - 0.0
20/11:00pm 4.2 2.9 4.2 100 0.0 CALM 0 0 0 0 - - 0.0
20/10:30pm 4.6 3.4 4.6 100 0.0 CALM 0 0 0 0 - - 0.0
20/10:00pm 5.1 4.0 5.1 100 0.0 CALM 0 0 0 0 - - 0.0
20/09:30pm 5.3 4.2 5.3 100 0.0 CALM 0 0 0 0 - - 0.0
20/09:00pm 6.8 6.1 6.8 100 0.0 CALM 0 6 0 3 - - 0.0
20/08:30pm 7.4 6.0 7.4 100 0.0 SE 4 9 2 5 - - 0.0
20/08:00pm 8.1 7.6 8.0 99 0.0 CALM 0 0 0 0 - - 0.0
20/07:30pm 8.9 8.5 8.1 95 0.4 CALM 0 0 0 0 - - 0.0
20/07:00pm 10.6 10.1 8.0 84 1.3 CALM 0 0 0 0 - - 0.0
20/06:30pm 11.6 11.1 7.7 77 1.9 CALM 0 0 0 0 - - 0.0

Other Formats:

Comma delimited format used in spreadsheet applications
http://www.bom.gov.au/fwo/IDV60801/IDV60801.95837.axf

JavaScript Object Notation format (JSON) in row-major order
http://www.bom.gov.au/fwo/IDV60801/IDV60801.95837.json